sensor_id;sensor_type;location;lat;lon;timestamp;temperature;humidity
83596;HTU21D;73564;45.026;38.952;2023-12-22T00:01:13;13.46;61.75
83596;HTU21D;73564;45.026;38.952;2023-12-22T00:03:45;13.45;61.83
83596;HTU21D;73564;45.026;38.952;2023-12-22T00:06:12;13.41;61.89
83596;HTU21D;73564;45.026;38.952;2023-12-22T00:08:38;13.40;61.99
83596;HTU21D;73564;45.026;38.952;2023-12-22T00:11:04;13.36;62.13
83596;HTU21D;73564;45.026;38.952;2023-12-22T00:13:30;13.36;62.24
83596;HTU21D;73564;45.026;38.952;2023-12-22T00:15:59;13.33;62.37
83596;HTU21D;73564;45.026;38.952;2023-12-22T00:18:24;13.30;62.51
83596;HTU21D;73564;45.026;38.952;2023-12-22T00:20:51;13.27;62.65
83596;HTU21D;73564;45.026;38.952;2023-12-22T00:23:16;13.25;62.75
83596;HTU21D;73564;45.026;38.952;2023-12-22T00:25:42;13.23;62.88
83596;HTU21D;73564;45.026;38.952;2023-12-22T00:28:08;13.22;62.98
83596;HTU21D;73564;45.026;38.952;2023-12-22T00:30:34;13.20;63.18
83596;HTU21D;73564;45.026;38.952;2023-12-22T00:33:00;13.17;63.35
83596;HTU21D;73564;45.026;38.952;2023-12-22T00:35:26;13.16;63.47
83596;HTU21D;73564;45.026;38.952;2023-12-22T00:37:51;13.15;63.60
83596;HTU21D;73564;45.026;38.952;2023-12-22T00:40:18;13.14;63.76
83596;HTU21D;73564;45.026;38.952;2023-12-22T00:42:44;13.11;63.82
83596;HTU21D;73564;45.026;38.952;2023-12-22T00:45:10;13.09;63.99
83596;HTU21D;73564;45.026;38.952;2023-12-22T00:47:36;13.08;64.11
83596;HTU21D;73564;45.026;38.952;2023-12-22T00:50:03;13.05;64.24
83596;HTU21D;73564;45.026;38.952;2023-12-22T00:52:29;12.99;64.59
83596;HTU21D;73564;45.026;38.952;2023-12-22T00:54:56;13.00;64.53
83596;HTU21D;73564;45.026;38.952;2023-12-22T00:57:22;12.99;64.61
83596;HTU21D;73564;45.026;38.952;2023-12-22T00:59:47;12.95;64.79
83596;HTU21D;73564;45.026;38.952;2023-12-22T01:02:17;12.97;64.77
83596;HTU21D;73564;45.026;38.952;2023-12-22T01:04:43;13.01;65.04
83596;HTU21D;73564;45.026;38.952;2023-12-22T01:07:10;13.05;65.11
83596;HTU21D;73564;45.026;38.952;2023-12-22T01:09:36;13.10;65.14
83596;HTU21D;73564;45.026;38.952;2023-12-22T01:12:05;13.16;65.11
83596;HTU21D;73564;45.026;38.952;2023-12-22T01:14:32;13.16;65.92
83596;HTU21D;73564;45.026;38.952;2023-12-22T01:16:58;13.19;65.19
83596;HTU21D;73564;45.026;38.952;2023-12-22T01:19:27;13.22;65.25
83596;HTU21D;73564;45.026;38.952;2023-12-22T01:21:53;13.25;65.21
83596;HTU21D;73564;45.026;38.952;2023-12-22T01:24:19;13.30;65.21
83596;HTU21D;73564;45.026;38.952;2023-12-22T01:26:45;13.32;65.18
83596;HTU21D;73564;45.026;38.952;2023-12-22T01:29:11;13.35;65.14
83596;HTU21D;73564;45.026;38.952;2023-12-22T01:31:37;13.38;65.14
83596;HTU21D;73564;45.026;38.952;2023-12-22T01:34:02;13.36;65.03
83596;HTU21D;73564;45.026;38.952;2023-12-22T01:36:28;13.35;65.13
83596;HTU21D;73564;45.026;38.952;2023-12-22T01:38:54;13.34;65.21
83596;HTU21D;73564;45.026;38.952;2023-12-22T01:41:20;13.32;65.21
83596;HTU21D;73564;45.026;38.952;2023-12-22T01:43:46;13.30;65.21
83596;HTU21D;73564;45.026;38.952;2023-12-22T01:46:12;13.27;65.37
83596;HTU21D;73564;45.026;38.952;2023-12-22T01:48:38;13.23;65.43
83596;HTU21D;73564;45.026;38.952;2023-12-22T01:51:05;13.21;65.53
83596;HTU21D;73564;45.026;38.952;2023-12-22T01:53:32;13.20;65.59
83596;HTU21D;73564;45.026;38.952;2023-12-22T01:55:59;13.19;65.66
83596;HTU21D;73564;45.026;38.952;2023-12-22T01:58:26;13.15;65.82
83596;HTU21D;73564;45.026;38.952;2023-12-22T02:00:53;13.07;66.31
83596;HTU21D;73564;45.026;38.952;2023-12-22T02:03:19;13.06;65.95
83596;HTU21D;73564;45.026;38.952;2023-12-22T02:05:46;13.03;66.14
83596;HTU21D;73564;45.026;38.952;2023-12-22T02:08:12;13.02;66.22
83596;HTU21D;73564;45.026;38.952;2023-12-22T02:10:38;13.01;66.31
83596;HTU21D;73564;45.026;38.952;2023-12-22T02:13:05;13.01;66.46
83596;HTU21D;73564;45.026;38.952;2023-12-22T02:15:32;13.00;66.57
83596;HTU21D;73564;45.026;38.952;2023-12-22T02:18:04;12.99;66.49
83596;HTU21D;73564;45.026;38.952;2023-12-22T02:20:31;12.96;66.66
83596;HTU21D;73564;45.026;38.952;2023-12-22T02:22:57;12.94;66.83
83596;HTU21D;73564;45.026;38.952;2023-12-22T02:25:23;12.93;66.91
83596;HTU21D;73564;45.026;38.952;2023-12-22T02:27:53;12.94;66.97
83596;HTU21D;73564;45.026;38.952;2023-12-22T02:30:22;12.97;67.08
83596;HTU21D;73564;45.026;38.952;2023-12-22T02:32:52;12.97;67.13
83596;HTU21D;73564;45.026;38.952;2023-12-22T02:35:22;12.93;67.33
83596;HTU21D;73564;45.026;38.952;2023-12-22T02:37:49;12.95;67.52
83596;HTU21D;73564;45.026;38.952;2023-12-22T02:40:17;12.92;67.66
83596;HTU21D;73564;45.026;38.952;2023-12-22T02:42:43;12.91;67.96
83596;HTU21D;73564;45.026;38.952;2023-12-22T02:45:17;12.85;67.98
83596;HTU21D;73564;45.026;38.952;2023-12-22T02:47:44;12.82;68.30
83596;HTU21D;73564;45.026;38.952;2023-12-22T02:50:11;12.78;68.40
83596;HTU21D;73564;45.026;38.952;2023-12-22T02:52:37;12.77;68.74
83596;HTU21D;73564;45.026;38.952;2023-12-22T02:55:04;12.75;68.84
83596;HTU21D;73564;45.026;38.952;2023-12-22T02:57:30;12.72;68.98
83596;HTU21D;73564;45.026;38.952;2023-12-22T02:59:56;12.69;69.16
83596;HTU21D;73564;45.026;38.952;2023-12-22T03:02:23;12.63;69.42
83596;HTU21D;73564;45.026;38.952;2023-12-22T03:04:49;12.62;69.63
83596;HTU21D;73564;45.026;38.952;2023-12-22T03:07:15;12.58;69.87
83596;HTU21D;73564;45.026;38.952;2023-12-22T03:09:42;12.52;70.00
83596;HTU21D;73564;45.026;38.952;2023-12-22T03:12:09;12.49;70.16
83596;HTU21D;73564;45.026;38.952;2023-12-22T03:14:36;12.47;70.23
83596;HTU21D;73564;45.026;38.952;2023-12-22T03:17:03;12.47;70.45
83596;HTU21D;73564;45.026;38.952;2023-12-22T03:19:30;12.45;70.61
83596;HTU21D;73564;45.026;38.952;2023-12-22T03:21:56;12.42;70.71
83596;HTU21D;73564;45.026;38.952;2023-12-22T03:24:25;12.42;70.79
83596;HTU21D;73564;45.026;38.952;2023-12-22T03:26:52;12.42;71.00
83596;HTU21D;73564;45.026;38.952;2023-12-22T03:29:18;12.42;71.05
83596;HTU21D;73564;45.026;38.952;2023-12-22T03:31:45;12.41;71.02
83596;HTU21D;73564;45.026;38.952;2023-12-22T03:34:11;12.44;71.14
83596;HTU21D;73564;45.026;38.952;2023-12-22T03:36:37;12.49;71.14
83596;HTU21D;73564;45.026;38.952;2023-12-22T03:39:03;12.58;71.12
83596;HTU21D;73564;45.026;38.952;2023-12-22T03:41:29;12.65;70.93
83596;HTU21D;73564;45.026;38.952;2023-12-22T03:43:56;12.72;70.87
83596;HTU21D;73564;45.026;38.952;2023-12-22T03:46:22;12.78;70.81
83596;HTU21D;73564;45.026;38.952;2023-12-22T03:48:50;12.85;70.68
83596;HTU21D;73564;45.026;38.952;2023-12-22T03:51:15;12.86;72.74
83596;HTU21D;73564;45.026;38.952;2023-12-22T03:53:41;12.91;70.54
83596;HTU21D;73564;45.026;38.952;2023-12-22T03:56:10;12.93;70.50
83596;HTU21D;73564;45.026;38.952;2023-12-22T03:58:36;12.96;70.45
83596;HTU21D;73564;45.026;38.952;2023-12-22T04:01:03;13.00;70.48
83596;HTU21D;73564;45.026;38.952;2023-12-22T04:03:29;13.03;70.45
83596;HTU21D;73564;45.026;38.952;2023-12-22T04:05:55;13.06;70.43
83596;HTU21D;73564;45.026;38.952;2023-12-22T04:08:21;13.08;70.43
83596;HTU21D;73564;45.026;38.952;2023-12-22T04:10:47;13.10;70.39
83596;HTU21D;73564;45.026;38.952;2023-12-22T04:13:13;13.15;70.42
83596;HTU21D;73564;45.026;38.952;2023-12-22T04:15:39;13.17;70.40
83596;HTU21D;73564;45.026;38.952;2023-12-22T04:18:05;13.16;70.36
83596;HTU21D;73564;45.026;38.952;2023-12-22T04:20:31;13.21;70.34
83596;HTU21D;73564;45.026;38.952;2023-12-22T04:22:57;13.20;70.23
83596;HTU21D;73564;45.026;38.952;2023-12-22T04:25:23;13.22;70.27
83596;HTU21D;73564;45.026;38.952;2023-12-22T04:27:51;13.21;70.25
83596;HTU21D;73564;45.026;38.952;2023-12-22T04:30:17;13.24;70.26
83596;HTU21D;73564;45.026;38.952;2023-12-22T04:32:43;13.24;70.32
83596;HTU21D;73564;45.026;38.952;2023-12-22T04:35:09;13.25;70.34
83596;HTU21D;73564;45.026;38.952;2023-12-22T04:37:34;13.27;70.29
83596;HTU21D;73564;45.026;38.952;2023-12-22T04:40:00;13.26;70.23
83596;HTU21D;73564;45.026;38.952;2023-12-22T04:42:26;13.24;70.18
83596;HTU21D;73564;45.026;38.952;2023-12-22T04:44:52;13.22;70.24
83596;HTU21D;73564;45.026;38.952;2023-12-22T04:47:18;13.20;70.33
83596;HTU21D;73564;45.026;38.952;2023-12-22T04:49:44;13.18;70.35
83596;HTU21D;73564;45.026;38.952;2023-12-22T04:52:13;13.17;70.59
83596;HTU21D;73564;45.026;38.952;2023-12-22T04:54:38;13.15;70.52
83596;HTU21D;73564;45.026;38.952;2023-12-22T04:57:04;13.12;70.54
83596;HTU21D;73564;45.026;38.952;2023-12-22T04:59:30;13.11;70.78
83596;HTU21D;73564;45.026;38.952;2023-12-22T05:01:56;13.11;70.87
83596;HTU21D;73564;45.026;38.952;2023-12-22T05:04:22;13.16;70.97
83596;HTU21D;73564;45.026;38.952;2023-12-22T05:06:48;13.15;70.97
83596;HTU21D;73564;45.026;38.952;2023-12-22T05:09:15;13.18;71.06
83596;HTU21D;73564;45.026;38.952;2023-12-22T05:11:40;13.17;71.09
83596;HTU21D;73564;45.026;38.952;2023-12-22T05:14:06;13.18;71.19
83596;HTU21D;73564;45.026;38.952;2023-12-22T05:16:32;13.17;71.25
83596;HTU21D;73564;45.026;38.952;2023-12-22T05:18:58;13.14;71.42
83596;HTU21D;73564;45.026;38.952;2023-12-22T05:21:24;13.10;71.55
83596;HTU21D;73564;45.026;38.952;2023-12-22T05:23:50;13.06;71.68
83596;HTU21D;73564;45.026;38.952;2023-12-22T05:26:20;13.06;71.79
83596;HTU21D;73564;45.026;38.952;2023-12-22T05:28:47;13.05;71.90
83596;HTU21D;73564;45.026;38.952;2023-12-22T05:31:15;13.05;71.99
83596;HTU21D;73564;45.026;38.952;2023-12-22T05:33:41;13.08;71.92
83596;HTU21D;73564;45.026;38.952;2023-12-22T05:36:07;13.09;71.90
83596;HTU21D;73564;45.026;38.952;2023-12-22T05:38:37;13.07;71.78
83596;HTU21D;73564;45.026;38.952;2023-12-22T05:41:03;13.01;71.75
83596;HTU21D;73564;45.026;38.952;2023-12-22T05:43:29;12.92;71.80
83596;HTU21D;73564;45.026;38.952;2023-12-22T05:45:55;12.81;72.07
83596;HTU21D;73564;45.026;38.952;2023-12-22T05:48:21;12.70;72.48
83596;HTU21D;73564;45.026;38.952;2023-12-22T05:50:48;12.60;72.86
83596;HTU21D;73564;45.026;38.952;2023-12-22T05:53:13;12.49;72.95
83596;HTU21D;73564;45.026;38.952;2023-12-22T05:55:40;12.41;73.03
83596;HTU21D;73564;45.026;38.952;2023-12-22T05:58:06;12.35;73.12
83596;HTU21D;73564;45.026;38.952;2023-12-22T06:00:32;12.29;73.24
83596;HTU21D;73564;45.026;38.952;2023-12-22T06:02:58;12.25;73.23
83596;HTU21D;73564;45.026;38.952;2023-12-22T06:05:23;12.22;73.15
83596;HTU21D;73564;45.026;38.952;2023-12-22T06:07:49;12.18;73.17
83596;HTU21D;73564;45.026;38.952;2023-12-22T06:10:15;12.16;73.19
83596;HTU21D;73564;45.026;38.952;2023-12-22T06:12:41;12.14;73.16
83596;HTU21D;73564;45.026;38.952;2023-12-22T06:15:07;12.14;73.16
83596;HTU21D;73564;45.026;38.952;2023-12-22T06:17:33;12.12;73.19
83596;HTU21D;73564;45.026;38.952;2023-12-22T06:19:59;12.14;73.10
83596;HTU21D;73564;45.026;38.952;2023-12-22T06:22:24;12.16;73.10
83596;HTU21D;73564;45.026;38.952;2023-12-22T06:24:50;12.16;72.84
83596;HTU21D;73564;45.026;38.952;2023-12-22T06:27:16;12.15;72.72
83596;HTU21D;73564;45.026;38.952;2023-12-22T06:29:42;12.13;72.68
83596;HTU21D;73564;45.026;38.952;2023-12-22T06:32:08;12.10;72.67
83596;HTU21D;73564;45.026;38.952;2023-12-22T06:34:34;12.10;72.59
83596;HTU21D;73564;45.026;38.952;2023-12-22T06:37:00;12.10;72.46
83596;HTU21D;73564;45.026;38.952;2023-12-22T06:39:25;12.08;72.58
83596;HTU21D;73564;45.026;38.952;2023-12-22T06:41:51;12.10;72.64
83596;HTU21D;73564;45.026;38.952;2023-12-22T06:44:17;12.14;72.60
83596;HTU21D;73564;45.026;38.952;2023-12-22T06:46:43;12.15;72.53
83596;HTU21D;73564;45.026;38.952;2023-12-22T06:49:09;12.16;72.38
83596;HTU21D;73564;45.026;38.952;2023-12-22T06:51:34;12.17;72.35
83596;HTU21D;73564;45.026;38.952;2023-12-22T06:54:01;12.17;72.32
83596;HTU21D;73564;45.026;38.952;2023-12-22T06:56:29;12.18;72.24
83596;HTU21D;73564;45.026;38.952;2023-12-22T06:58:56;12.19;72.13
83596;HTU21D;73564;45.026;38.952;2023-12-22T07:03:54;12.25;71.84
83596;HTU21D;73564;45.026;38.952;2023-12-22T07:06:21;12.23;71.78
83596;HTU21D;73564;45.026;38.952;2023-12-22T07:11:34;12.29;71.78
83596;HTU21D;73564;45.026;38.952;2023-12-22T07:14:00;12.29;71.72
83596;HTU21D;73564;45.026;38.952;2023-12-22T07:16:26;12.33;71.66
83596;HTU21D;73564;45.026;38.952;2023-12-22T07:18:52;12.36;71.74
83596;HTU21D;73564;45.026;38.952;2023-12-22T07:21:18;12.43;71.80
83596;HTU21D;73564;45.026;38.952;2023-12-22T07:23:44;12.53;71.76
83596;HTU21D;73564;45.026;38.952;2023-12-22T07:26:10;12.65;71.54
83596;HTU21D;73564;45.026;38.952;2023-12-22T07:28:38;12.75;71.21
83596;HTU21D;73564;45.026;38.952;2023-12-22T07:31:04;12.80;71.00
83596;HTU21D;73564;45.026;38.952;2023-12-22T07:33:31;12.84;70.86
83596;HTU21D;73564;45.026;38.952;2023-12-22T07:35:57;12.82;70.34
83596;HTU21D;73564;45.026;38.952;2023-12-22T07:38:23;12.75;70.28
83596;HTU21D;73564;45.026;38.952;2023-12-22T07:40:49;12.66;70.16
83596;HTU21D;73564;45.026;38.952;2023-12-22T07:43:15;12.56;70.21
83596;HTU21D;73564;45.026;38.952;2023-12-22T07:45:41;12.50;70.36
83596;HTU21D;73564;45.026;38.952;2023-12-22T07:48:07;12.44;70.81
83596;HTU21D;73564;45.026;38.952;2023-12-22T07:50:33;12.45;70.64
83596;HTU21D;73564;45.026;38.952;2023-12-22T07:52:59;12.45;70.73
83596;HTU21D;73564;45.026;38.952;2023-12-22T07:55:25;12.49;70.98
83596;HTU21D;73564;45.026;38.952;2023-12-22T07:57:51;12.58;70.73
83596;HTU21D;73564;45.026;38.952;2023-12-22T08:00:17;12.62;70.40
83596;HTU21D;73564;45.026;38.952;2023-12-22T08:02:44;12.63;70.49
83596;HTU21D;73564;45.026;38.952;2023-12-22T08:05:10;12.67;70.48
83596;HTU21D;73564;45.026;38.952;2023-12-22T08:07:36;12.70;69.90
83596;HTU21D;73564;45.026;38.952;2023-12-22T08:10:03;12.70;69.65
83596;HTU21D;73564;45.026;38.952;2023-12-22T08:12:29;12.66;69.68
83596;HTU21D;73564;45.026;38.952;2023-12-22T08:14:55;12.66;69.89
83596;HTU21D;73564;45.026;38.952;2023-12-22T08:17:20;12.71;69.68
83596;HTU21D;73564;45.026;38.952;2023-12-22T08:19:46;12.73;69.39
83596;HTU21D;73564;45.026;38.952;2023-12-22T08:22:12;12.76;69.42
83596;HTU21D;73564;45.026;38.952;2023-12-22T08:24:41;12.76;69.02
83596;HTU21D;73564;45.026;38.952;2023-12-22T08:27:08;12.76;69.15
83596;HTU21D;73564;45.026;38.952;2023-12-22T08:29:34;12.79;69.15
83596;HTU21D;73564;45.026;38.952;2023-12-22T08:32:00;12.81;68.54
83596;HTU21D;73564;45.026;38.952;2023-12-22T08:34:27;12.80;68.38
83596;HTU21D;73564;45.026;38.952;2023-12-22T08:36:53;12.80;68.23
83596;HTU21D;73564;45.026;38.952;2023-12-22T08:39:19;12.82;68.67
83596;HTU21D;73564;45.026;38.952;2023-12-22T08:41:45;12.88;68.47
83596;HTU21D;73564;45.026;38.952;2023-12-22T08:44:11;12.91;68.49
83596;HTU21D;73564;45.026;38.952;2023-12-22T08:46:40;12.91;68.39
83596;HTU21D;73564;45.026;38.952;2023-12-22T08:49:06;12.91;68.75
83596;HTU21D;73564;45.026;38.952;2023-12-22T08:51:32;12.96;69.16
83596;HTU21D;73564;45.026;38.952;2023-12-22T08:53:59;13.07;69.13
83596;HTU21D;73564;45.026;38.952;2023-12-22T08:56:26;13.16;69.26
83596;HTU21D;73564;45.026;38.952;2023-12-22T08:58:53;13.25;68.87
83596;HTU21D;73564;45.026;38.952;2023-12-22T09:01:21;13.31;69.00
83596;HTU21D;73564;45.026;38.952;2023-12-22T09:03:48;13.38;68.97
83596;HTU21D;73564;45.026;38.952;2023-12-22T09:06:16;13.48;68.97
83596;HTU21D;73564;45.026;38.952;2023-12-22T09:08:42;13.59;68.69
83596;HTU21D;73564;45.026;38.952;2023-12-22T09:11:11;13.63;68.60
83596;HTU21D;73564;45.026;38.952;2023-12-22T09:13:37;13.66;68.74
83596;HTU21D;73564;45.026;38.952;2023-12-22T09:16:04;13.73;68.58
83596;HTU21D;73564;45.026;38.952;2023-12-22T09:18:30;13.81;68.42
83596;HTU21D;73564;45.026;38.952;2023-12-22T09:20:57;13.84;68.46
83596;HTU21D;73564;45.026;38.952;2023-12-22T09:23:23;13.90;68.65
83596;HTU21D;73564;45.026;38.952;2023-12-22T09:25:49;13.97;68.53
83596;HTU21D;73564;45.026;38.952;2023-12-22T09:28:15;14.07;68.04
83596;HTU21D;73564;45.026;38.952;2023-12-22T09:30:41;14.09;67.94
83596;HTU21D;73564;45.026;38.952;2023-12-22T09:33:10;14.11;68.51
83596;HTU21D;73564;45.026;38.952;2023-12-22T09:35:36;14.15;68.25
83596;HTU21D;73564;45.026;38.952;2023-12-22T09:38:05;14.21;68.46
83596;HTU21D;73564;45.026;38.952;2023-12-22T09:40:31;14.27;68.49
83596;HTU21D;73564;45.026;38.952;2023-12-22T09:43:02;14.37;68.51
83596;HTU21D;73564;45.026;38.952;2023-12-22T09:45:29;14.43;67.62
83596;HTU21D;73564;45.026;38.952;2023-12-22T09:47:56;14.45;67.88
83596;HTU21D;73564;45.026;38.952;2023-12-22T09:50:24;14.47;67.56
83596;HTU21D;73564;45.026;38.952;2023-12-22T09:52:51;14.44;64.63
83596;HTU21D;73564;45.026;38.952;2023-12-22T09:55:17;14.44;67.62
83596;HTU21D;73564;45.026;38.952;2023-12-22T09:57:45;14.50;67.32
83596;HTU21D;73564;45.026;38.952;2023-12-22T10:00:11;14.53;66.96
83596;HTU21D;73564;45.026;38.952;2023-12-22T10:02:39;14.53;67.20
83596;HTU21D;73564;45.026;38.952;2023-12-22T10:05:05;14.57;67.15
83596;HTU21D;73564;45.026;38.952;2023-12-22T10:07:32;14.60;66.91
83596;HTU21D;73564;45.026;38.952;2023-12-22T10:09:59;14.62;66.90
83596;HTU21D;73564;45.026;38.952;2023-12-22T10:12:29;14.63;67.09
83596;HTU21D;73564;45.026;38.952;2023-12-22T10:14:59;14.66;67.13
83596;HTU21D;73564;45.026;38.952;2023-12-22T10:17:26;14.69;67.30
83596;HTU21D;73564;45.026;38.952;2023-12-22T10:19:52;14.77;67.03
83596;HTU21D;73564;45.026;38.952;2023-12-22T10:22:18;14.79;66.82
83596;HTU21D;73564;45.026;38.952;2023-12-22T10:24:46;14.83;67.17
83596;HTU21D;73564;45.026;38.952;2023-12-22T10:27:18;14.87;66.86
83596;HTU21D;73564;45.026;38.952;2023-12-22T10:29:57;14.92;67.06
83596;HTU21D;73564;45.026;38.952;2023-12-22T10:32:23;14.96;66.97
83596;HTU21D;73564;45.026;38.952;2023-12-22T10:34:52;15.00;66.87
83596;HTU21D;73564;45.026;38.952;2023-12-22T10:37:18;15.04;66.27
83596;HTU21D;73564;45.026;38.952;2023-12-22T10:39:44;15.06;66.22
83596;HTU21D;73564;45.026;38.952;2023-12-22T10:42:14;15.10;66.07
83596;HTU21D;73564;45.026;38.952;2023-12-22T10:44:40;15.11;66.33
83596;HTU21D;73564;45.026;38.952;2023-12-22T10:47:07;15.16;66.05
83596;HTU21D;73564;45.026;38.952;2023-12-22T10:49:33;15.18;65.82
83596;HTU21D;73564;45.026;38.952;2023-12-22T10:51:59;15.21;65.64
83596;HTU21D;73564;45.026;38.952;2023-12-22T10:54:25;15.24;65.48
83596;HTU21D;73564;45.026;38.952;2023-12-22T10:56:52;15.21;65.58
83596;HTU21D;73564;45.026;38.952;2023-12-22T10:59:22;15.22;65.18
83596;HTU21D;73564;45.026;38.952;2023-12-22T11:01:51;15.22;65.30
83596;HTU21D;73564;45.026;38.952;2023-12-22T11:04:18;15.21;65.03
83596;HTU21D;73564;45.026;38.952;2023-12-22T11:06:47;15.21;65.05
83596;HTU21D;73564;45.026;38.952;2023-12-22T11:09:17;15.22;64.88
83596;HTU21D;73564;45.026;38.952;2023-12-22T11:11:45;15.21;64.66
83596;HTU21D;73564;45.026;38.952;2023-12-22T11:14:10;15.14;65.23
83596;HTU21D;73564;45.026;38.952;2023-12-22T11:16:37;15.15;65.12
83596;HTU21D;73564;45.026;38.952;2023-12-22T11:19:03;15.14;64.95
83596;HTU21D;73564;45.026;38.952;2023-12-22T11:21:30;15.16;65.03
83596;HTU21D;73564;45.026;38.952;2023-12-22T11:23:57;15.17;64.86
83596;HTU21D;73564;45.026;38.952;2023-12-22T11:26:24;15.19;64.95
83596;HTU21D;73564;45.026;38.952;2023-12-22T11:28:51;15.21;64.65
83596;HTU21D;73564;45.026;38.952;2023-12-22T11:31:20;15.19;64.66
83596;HTU21D;73564;45.026;38.952;2023-12-22T11:33:48;15.19;64.31
83596;HTU21D;73564;45.026;38.952;2023-12-22T11:36:15;15.18;64.01
83596;HTU21D;73564;45.026;38.952;2023-12-22T11:38:41;15.16;64.00
83596;HTU21D;73564;45.026;38.952;2023-12-22T11:41:29;15.18;63.99
83596;HTU21D;73564;45.026;38.952;2023-12-22T11:43:57;15.16;63.54
83596;HTU21D;73564;45.026;38.952;2023-12-22T11:46:24;15.15;63.18
83596;HTU21D;73564;45.026;38.952;2023-12-22T11:48:51;15.13;62.60
83596;HTU21D;73564;45.026;38.952;2023-12-22T11:51:18;15.10;62.12
83596;HTU21D;73564;45.026;38.952;2023-12-22T11:53:44;15.07;62.37
83596;HTU21D;73564;45.026;38.952;2023-12-22T11:56:11;15.07;62.05
83596;HTU21D;73564;45.026;38.952;2023-12-22T11:58:47;15.04;62.21
83596;HTU21D;73564;45.026;38.952;2023-12-22T12:01:19;15.04;62.23
83596;HTU21D;73564;45.026;38.952;2023-12-22T12:06:14;15.02;61.92
83596;HTU21D;73564;45.026;38.952;2023-12-22T12:08:40;14.99;62.18
83596;HTU21D;73564;45.026;38.952;2023-12-22T12:11:07;14.97;62.40
83596;HTU21D;73564;45.026;38.952;2023-12-22T12:13:33;14.98;62.60
83596;HTU21D;73564;45.026;38.952;2023-12-22T12:16:00;15.01;62.68
83596;HTU21D;73564;45.026;38.952;2023-12-22T12:18:28;15.06;62.82
83596;HTU21D;73564;45.026;38.952;2023-12-22T12:20:55;15.07;62.94
83596;HTU21D;73564;45.026;38.952;2023-12-22T12:23:23;15.10;62.67
83596;HTU21D;73564;45.026;38.952;2023-12-22T12:25:49;15.09;62.69
83596;HTU21D;73564;45.026;38.952;2023-12-22T12:28:15;15.08;62.40
83596;HTU21D;73564;45.026;38.952;2023-12-22T12:30:44;15.03;62.93
83596;HTU21D;73564;45.026;38.952;2023-12-22T12:33:12;15.02;63.26
83596;HTU21D;73564;45.026;38.952;2023-12-22T12:35:40;15.02;63.09
83596;HTU21D;73564;45.026;38.952;2023-12-22T12:38:06;15.00;63.05
83596;HTU21D;73564;45.026;38.952;2023-12-22T12:40:32;14.98;63.18
83596;HTU21D;73564;45.026;38.952;2023-12-22T12:43:01;14.98;63.14
83596;HTU21D;73564;45.026;38.952;2023-12-22T12:45:27;14.88;63.48
83596;HTU21D;73564;45.026;38.952;2023-12-22T12:48:00;14.88;63.57
83596;HTU21D;73564;45.026;38.952;2023-12-22T12:50:27;14.85;63.58
83596;HTU21D;73564;45.026;38.952;2023-12-22T12:52:54;14.87;63.74
83596;HTU21D;73564;45.026;38.952;2023-12-22T12:55:21;14.87;63.70
83596;HTU21D;73564;45.026;38.952;2023-12-22T12:57:54;14.88;63.56
83596;HTU21D;73564;45.026;38.952;2023-12-22T13:00:27;14.87;63.60
83596;HTU21D;73564;45.026;38.952;2023-12-22T13:03:04;14.84;63.89
83596;HTU21D;73564;45.026;38.952;2023-12-22T13:05:31;14.85;64.14
83596;HTU21D;73564;45.026;38.952;2023-12-22T13:08:10;14.88;63.92
83596;HTU21D;73564;45.026;38.952;2023-12-22T13:10:37;14.87;64.08
83596;HTU21D;73564;45.026;38.952;2023-12-22T13:13:03;14.83;63.90
83596;HTU21D;73564;45.026;38.952;2023-12-22T13:15:30;14.82;64.12
83596;HTU21D;73564;45.026;38.952;2023-12-22T13:17:56;14.80;64.27
83596;HTU21D;73564;45.026;38.952;2023-12-22T13:20:22;14.81;64.31
83596;HTU21D;73564;45.026;38.952;2023-12-22T13:22:48;14.81;64.21
83596;HTU21D;73564;45.026;38.952;2023-12-22T13:25:15;14.82;64.16
83596;HTU21D;73564;45.026;38.952;2023-12-22T13:27:48;14.83;64.43
83596;HTU21D;73564;45.026;38.952;2023-12-22T13:30:34;14.86;64.34
83596;HTU21D;73564;45.026;38.952;2023-12-22T13:33:00;14.85;64.14
83596;HTU21D;73564;45.026;38.952;2023-12-22T13:35:26;14.84;64.17
83596;HTU21D;73564;45.026;38.952;2023-12-22T13:37:54;14.83;64.28
83596;HTU21D;73564;45.026;38.952;2023-12-22T13:40:20;14.83;64.21
83596;HTU21D;73564;45.026;38.952;2023-12-22T13:42:56;14.82;64.27
83596;HTU21D;73564;45.026;38.952;2023-12-22T13:45:24;14.81;64.43
83596;HTU21D;73564;45.026;38.952;2023-12-22T13:47:50;14.83;64.61
83596;HTU21D;73564;45.026;38.952;2023-12-22T13:50:17;14.85;64.32
83596;HTU21D;73564;45.026;38.952;2023-12-22T13:52:44;14.80;64.29
83596;HTU21D;73564;45.026;38.952;2023-12-22T13:55:11;14.73;64.65
83596;HTU21D;73564;45.026;38.952;2023-12-22T13:57:36;14.72;64.94
83596;HTU21D;73564;45.026;38.952;2023-12-22T14:00:26;14.75;65.21
83596;HTU21D;73564;45.026;38.952;2023-12-22T14:02:52;14.78;65.03
83596;HTU21D;73564;45.026;38.952;2023-12-22T14:05:19;14.78;64.91
83596;HTU21D;73564;45.026;38.952;2023-12-22T14:07:45;14.80;65.21
83596;HTU21D;73564;45.026;38.952;2023-12-22T14:10:11;14.84;65.15
83596;HTU21D;73564;45.026;38.952;2023-12-22T14:12:38;14.87;65.00
83596;HTU21D;73564;45.026;38.952;2023-12-22T14:15:07;14.88;64.95
83596;HTU21D;73564;45.026;38.952;2023-12-22T14:17:33;14.85;64.82
83596;HTU21D;73564;45.026;38.952;2023-12-22T14:19:59;14.81;64.94
83596;HTU21D;73564;45.026;38.952;2023-12-22T14:22:25;14.78;65.04
83596;HTU21D;73564;45.026;38.952;2023-12-22T14:24:54;14.71;65.14
83596;HTU21D;73564;45.026;38.952;2023-12-22T14:27:23;14.68;65.14
83596;HTU21D;73564;45.026;38.952;2023-12-22T14:29:49;14.65;65.17
83596;HTU21D;73564;45.026;38.952;2023-12-22T14:32:15;14.60;65.43
83596;HTU21D;73564;45.026;38.952;2023-12-22T14:34:47;14.57;65.50
83596;HTU21D;73564;45.026;38.952;2023-12-22T14:37:13;14.57;65.62
83596;HTU21D;73564;45.026;38.952;2023-12-22T14:39:39;14.55;65.53
83596;HTU21D;73564;45.026;38.952;2023-12-22T14:42:05;14.56;65.46
83596;HTU21D;73564;45.026;38.952;2023-12-22T14:44:31;14.54;65.32
83596;HTU21D;73564;45.026;38.952;2023-12-22T14:46:57;14.53;65.27
83596;HTU21D;73564;45.026;38.952;2023-12-22T14:49:23;14.52;64.76
83596;HTU21D;73564;45.026;38.952;2023-12-22T14:51:49;14.47;64.86
83596;HTU21D;73564;45.026;38.952;2023-12-22T14:54:20;14.42;64.70
83596;HTU21D;73564;45.026;38.952;2023-12-22T14:56:49;14.38;64.82
83596;HTU21D;73564;45.026;38.952;2023-12-22T14:59:16;14.33;64.92
83596;HTU21D;73564;45.026;38.952;2023-12-22T15:01:45;14.28;65.00
83596;HTU21D;73564;45.026;38.952;2023-12-22T15:04:11;14.24;64.95
83596;HTU21D;73564;45.026;38.952;2023-12-22T15:06:41;14.20;65.10
83596;HTU21D;73564;45.026;38.952;2023-12-22T15:09:09;14.14;65.27